sensor_id;sensor_type;location;lat;lon;timestamp;pressure;altitude;pressure_sealevel;temperature;humidity
60099;BME280;62818;49.394;8.686;2023-02-07T00:00:57;102424.16;;;2.18;87.05
60099;BME280;62818;49.394;8.686;2023-02-07T00:01:57;102432.34;;;2.10;86.90
60099;BME280;62818;49.394;8.686;2023-02-07T00:02:58;102426.25;;;2.10;86.78
60099;BME280;62818;49.394;8.686;2023-02-07T00:03:59;102425.97;;;2.16;86.30
60099;BME280;62818;49.394;8.686;2023-02-07T00:05:00;102435.44;;;2.37;86.22
60099;BME280;62818;49.394;8.686;2023-02-07T00:06:30;102429.22;;;2.21;85.24
60099;BME280;62818;49.394;8.686;2023-02-07T00:07:33;102414.91;;;2.11;85.58
60099;BME280;62818;49.394;8.686;2023-02-07T00:08:34;102422.75;;;2.11;85.56
60099;BME280;62818;49.394;8.686;2023-02-07T00:09:35;102423.09;;;2.22;85.23
60099;BME280;62818;49.394;8.686;2023-02-07T00:10:36;102425.06;;;2.17;85.07
60099;BME280;62818;49.394;8.686;2023-02-07T00:11:38;102431.19;;;2.16;85.22
60099;BME280;62818;49.394;8.686;2023-02-07T00:12:39;102427.81;;;2.14;84.93
60099;BME280;62818;49.394;8.686;2023-02-07T00:13:40;102428.78;;;2.30;84.97
60099;BME280;62818;49.394;8.686;2023-02-07T00:14:41;102431.34;;;2.13;84.27
60099;BME280;62818;49.394;8.686;2023-02-07T00:15:41;102428.09;;;2.08;84.65
60099;BME280;62818;49.394;8.686;2023-02-07T00:16:42;102434.88;;;2.12;84.29
60099;BME280;62818;49.394;8.686;2023-02-07T00:17:42;102425.28;;;2.12;84.20
60099;BME280;62818;49.394;8.686;2023-02-07T00:18:43;102432.34;;;2.10;84.24
60099;BME280;62818;49.394;8.686;2023-02-07T00:19:43;102423.81;;;2.07;84.05
60099;BME280;62818;49.394;8.686;2023-02-07T00:20:44;102428.09;;;2.08;83.90
60099;BME280;62818;49.394;8.686;2023-02-07T00:21:44;102433.19;;;2.11;84.35
60099;BME280;62818;49.394;8.686;2023-02-07T00:22:45;102424.72;;;2.06;84.04
60099;BME280;62818;49.394;8.686;2023-02-07T00:23:46;102424.41;;;2.12;84.51
60099;BME280;62818;49.394;8.686;2023-02-07T00:24:47;102435.31;;;2.03;84.91
60099;BME280;62818;49.394;8.686;2023-02-07T00:25:47;102435.31;;;2.03;84.64
60099;BME280;62818;49.394;8.686;2023-02-07T00:26:48;102433.63;;;2.02;85.40
60099;BME280;62818;49.394;8.686;2023-02-07T00:27:49;102436.03;;;2.06;84.85
60099;BME280;62818;49.394;8.686;2023-02-07T00:28:51;102433.34;;;2.08;83.97
60099;BME280;62818;49.394;8.686;2023-02-07T00:29:52;102432.34;;;2.10;84.32
60099;BME280;62818;49.394;8.686;2023-02-07T00:32:08;102431.78;;;2.04;84.01
60099;BME280;62818;49.394;8.686;2023-02-07T00:33:08;102438.97;;;1.99;85.20
60099;BME280;62818;49.394;8.686;2023-02-07T00:34:09;102433.75;;;1.99;84.41
60099;BME280;62818;49.394;8.686;2023-02-07T00:35:11;102422.38;;;2.00;83.27
60099;BME280;62818;49.394;8.686;2023-02-07T00:36:14;102413.59;;;2.01;83.67
60099;BME280;62818;49.394;8.686;2023-02-07T00:37:17;102434.75;;;2.15;83.18
60099;BME280;62818;49.394;8.686;2023-02-07T00:38:18;102435.47;;;2.00;83.63
60099;BME280;62818;49.394;8.686;2023-02-07T00:39:18;102430.22;;;2.00;83.60
60099;BME280;62818;49.394;8.686;2023-02-07T00:40:19;102420.97;;;1.93;83.94
60099;BME280;62818;49.394;8.686;2023-02-07T00:41:19;102430.66;;;1.91;84.45
60099;BME280;62818;49.394;8.686;2023-02-07T00:42:20;102422.50;;;1.97;83.48
60099;BME280;62818;49.394;8.686;2023-02-07T00:43:20;102424.34;;;1.95;83.95
60099;BME280;62818;49.394;8.686;2023-02-07T00:44:21;102436.72;;;2.10;84.00
60099;BME280;62818;49.394;8.686;2023-02-07T00:45:21;102432.00;;;1.99;83.64
60099;BME280;62818;49.394;8.686;2023-02-07T00:46:22;102446.22;;;1.94;84.15
60099;BME280;62818;49.394;8.686;2023-02-07T00:47:23;102436.00;;;1.88;84.51
60099;BME280;62818;49.394;8.686;2023-02-07T00:48:28;102444.50;;;1.93;84.75
60099;BME280;62818;49.394;8.686;2023-02-07T00:49:30;102442.94;;;1.89;84.36
60099;BME280;62818;49.394;8.686;2023-02-07T00:50:30;102435.75;;;1.94;85.14
60099;BME280;62818;49.394;8.686;2023-02-07T00:51:31;102442.25;;;2.04;85.12
60099;BME280;62818;49.394;8.686;2023-02-07T00:52:32;102437.56;;;1.92;84.75
60099;BME280;62818;49.394;8.686;2023-02-07T00:53:33;102449.09;;;1.88;85.85
60099;BME280;62818;49.394;8.686;2023-02-07T00:54:33;102436.75;;;1.91;84.50
60099;BME280;62818;49.394;8.686;2023-02-07T00:55:34;102426.84;;;1.98;85.00
60099;BME280;62818;49.394;8.686;2023-02-07T00:56:34;102442.31;;;1.84;84.96
60099;BME280;62818;49.394;8.686;2023-02-07T00:57:35;102424.56;;;1.90;84.93
60099;BME280;62818;49.394;8.686;2023-02-07T00:58:36;102429.09;;;1.87;85.07
60099;BME280;62818;49.394;8.686;2023-02-07T00:59:37;102435.41;;;1.83;84.55
60099;BME280;62818;49.394;8.686;2023-02-07T01:00:37;102423.44;;;1.96;84.05
60099;BME280;62818;49.394;8.686;2023-02-07T01:01:38;102427.25;;;1.89;82.89
60099;BME280;62818;49.394;8.686;2023-02-07T01:02:38;102417.09;;;1.83;82.75
60099;BME280;62818;49.394;8.686;2023-02-07T01:03:39;102419.91;;;1.97;82.42
60099;BME280;62818;49.394;8.686;2023-02-07T01:04:40;102432.25;;;1.75;81.73
60099;BME280;62818;49.394;8.686;2023-02-07T01:05:41;102426.38;;;1.70;81.78
60099;BME280;62818;49.394;8.686;2023-02-07T01:06:42;102425.34;;;1.74;81.39
60099;BME280;62818;49.394;8.686;2023-02-07T01:07:42;102427.97;;;1.74;80.87
60099;BME280;62818;49.394;8.686;2023-02-07T01:08:43;102417.34;;;1.77;80.74
60099;BME280;62818;49.394;8.686;2023-02-07T01:09:44;102430.69;;;1.71;80.60
60099;BME280;62818;49.394;8.686;2023-02-07T01:10:45;102434.44;;;1.65;80.11
60099;BME280;62818;49.394;8.686;2023-02-07T01:11:45;102437.00;;;1.67;80.40
60099;BME280;62818;49.394;8.686;2023-02-07T01:12:46;102437.13;;;1.64;78.13
60099;BME280;62818;49.394;8.686;2023-02-07T01:13:46;102443.13;;;1.66;76.91
60099;BME280;62818;49.394;8.686;2023-02-07T01:14:46;102450.91;;;1.67;76.71
60099;BME280;62818;49.394;8.686;2023-02-07T01:15:48;102445.72;;;1.66;77.44
60099;BME280;62818;49.394;8.686;2023-02-07T01:16:48;102434.38;;;1.67;77.42
60099;BME280;62818;49.394;8.686;2023-02-07T01:17:49;102428.50;;;1.62;78.28
60099;BME280;62818;49.394;8.686;2023-02-07T01:18:50;102426.66;;;1.64;78.66
60099;BME280;62818;49.394;8.686;2023-02-07T01:19:55;102423.53;;;1.56;79.02
60099;BME280;62818;49.394;8.686;2023-02-07T01:20:57;102421.31;;;1.67;78.89
60099;BME280;62818;49.394;8.686;2023-02-07T01:21:58;102432.03;;;1.61;79.67
60099;BME280;62818;49.394;8.686;2023-02-07T01:22:59;102406.84;;;1.78;79.61
60099;BME280;62818;49.394;8.686;2023-02-07T01:23:59;102416.41;;;1.59;78.55
60099;BME280;62818;49.394;8.686;2023-02-07T01:25:00;102421.84;;;1.55;77.49
60099;BME280;62818;49.394;8.686;2023-02-07T01:26:04;102415.34;;;1.63;77.81
60099;BME280;62818;49.394;8.686;2023-02-07T01:27:04;102413.22;;;1.52;77.31
60099;BME280;62818;49.394;8.686;2023-02-07T01:28:05;102421.84;;;1.55;77.00
60099;BME280;62818;49.394;8.686;2023-02-07T01:29:07;102415.22;;;1.47;76.81
60099;BME280;62818;49.394;8.686;2023-02-07T01:30:10;102425.66;;;1.47;75.29
60099;BME280;62818;49.394;8.686;2023-02-07T01:31:12;102427.63;;;1.42;76.06
60099;BME280;62818;49.394;8.686;2023-02-07T01:32:12;102424.72;;;1.48;75.94
60099;BME280;62818;49.394;8.686;2023-02-07T01:33:13;102429.31;;;1.43;77.00
60099;BME280;62818;49.394;8.686;2023-02-07T01:34:13;102416.88;;;1.48;77.21
60099;BME280;62818;49.394;8.686;2023-02-07T01:35:14;102418.16;;;1.40;76.85
60099;BME280;62818;49.394;8.686;2023-02-07T01:36:15;102415.84;;;1.32;77.04
60099;BME280;62818;49.394;8.686;2023-02-07T01:37:15;102427.91;;;1.36;76.97
60099;BME280;62818;49.394;8.686;2023-02-07T01:38:16;102429.38;;;1.42;75.92
60099;BME280;62818;49.394;8.686;2023-02-07T01:39:17;102433.25;;;1.33;75.92
60099;BME280;62818;49.394;8.686;2023-02-07T01:40:18;102432.38;;;1.33;75.39
60099;BME280;62818;49.394;8.686;2023-02-07T01:41:21;102437.91;;;1.45;75.96
60099;BME280;62818;49.394;8.686;2023-02-07T01:42:25;102437.03;;;1.26;75.76
60099;BME280;62818;49.394;8.686;2023-02-07T01:43:27;102441.56;;;1.23;76.11
60099;BME280;62818;49.394;8.686;2023-02-07T01:45:34;102431.22;;;1.20;75.04
60099;BME280;62818;49.394;8.686;2023-02-07T01:46:39;102437.31;;;1.20;74.58
60099;BME280;62818;49.394;8.686;2023-02-07T01:47:40;102440.19;;;1.14;74.46
60099;BME280;62818;49.394;8.686;2023-02-07T01:48:40;102437.69;;;1.11;74.77
60099;BME280;62818;49.394;8.686;2023-02-07T01:49:42;102437.56;;;1.14;74.72
60099;BME280;62818;49.394;8.686;2023-02-07T01:50:47;102443.19;;;1.05;74.82
60099;BME280;62818;49.394;8.686;2023-02-07T01:51:52;102449.97;;;1.09;74.30
60099;BME280;62818;49.394;8.686;2023-02-07T01:52:57;102459.06;;;0.99;73.77
60099;BME280;62818;49.394;8.686;2023-02-07T01:54:03;102455.19;;;1.09;73.33
60099;BME280;62818;49.394;8.686;2023-02-07T01:55:14;102460.88;;;1.19;73.75
60099;BME280;62818;49.394;8.686;2023-02-07T01:56:20;102472.69;;;1.07;73.65
60099;BME280;62818;49.394;8.686;2023-02-07T01:57:21;102458.06;;;1.03;73.55
60099;BME280;62818;49.394;8.686;2023-02-07T01:58:23;102463.13;;;1.06;73.73
60099;BME280;62818;49.394;8.686;2023-02-07T01:59:25;102465.41;;;0.94;74.44
60099;BME280;62818;49.394;8.686;2023-02-07T02:00:28;102471.69;;;0.90;73.70
60099;BME280;62818;49.394;8.686;2023-02-07T02:01:29;102470.25;;;1.03;73.73
60099;BME280;62818;49.394;8.686;2023-02-07T02:02:32;102468.13;;;0.91;74.03
60099;BME280;62818;49.394;8.686;2023-02-07T02:03:39;102473.06;;;0.98;73.68
60099;BME280;62818;49.394;8.686;2023-02-07T02:04:44;102470.16;;;0.84;73.67
60099;BME280;62818;49.394;8.686;2023-02-07T02:05:45;102464.31;;;1.19;74.20
60099;BME280;62818;49.394;8.686;2023-02-07T02:06:47;102470.03;;;0.87;73.88
60099;BME280;62818;49.394;8.686;2023-02-07T02:07:48;102452.03;;;0.81;73.55
60099;BME280;62818;49.394;8.686;2023-02-07T02:08:51;102458.75;;;0.87;73.82
60099;BME280;62818;49.394;8.686;2023-02-07T02:09:55;102459.59;;;0.87;73.76
60099;BME280;62818;49.394;8.686;2023-02-07T02:11:09;102475.53;;;0.81;72.91
60099;BME280;62818;49.394;8.686;2023-02-07T02:17:34;102459.19;;;0.76;73.05
60099;BME280;62818;49.394;8.686;2023-02-07T02:18:49;102470.41;;;0.78;73.06
60099;BME280;62818;49.394;8.686;2023-02-07T02:24:20;102462.66;;;0.77;73.51
60099;BME280;62818;49.394;8.686;2023-02-07T02:25:43;102462.06;;;0.70;73.48
60099;BME280;62818;49.394;8.686;2023-02-07T02:30:46;102461.44;;;0.85;73.62
60099;BME280;62818;49.394;8.686;2023-02-07T02:35:07;102471.97;;;0.82;72.94
60099;BME280;62818;49.394;8.686;2023-02-07T02:36:44;102480.75;;;0.81;72.71
60099;BME280;62818;49.394;8.686;2023-02-07T02:38:14;102479.16;;;0.77;72.43
60099;BME280;62818;49.394;8.686;2023-02-07T02:40:56;102494.22;;;0.70;73.34
60099;BME280;62818;49.394;8.686;2023-02-07T02:43:43;102468.47;;;0.83;72.91
60099;BME280;62818;49.394;8.686;2023-02-07T02:44:48;102467.19;;;0.71;73.26
60099;BME280;62818;49.394;8.686;2023-02-07T02:46:23;102475.75;;;0.75;73.17
60099;BME280;62818;49.394;8.686;2023-02-07T02:47:29;102470.59;;;0.73;72.76
60099;BME280;62818;49.394;8.686;2023-02-07T02:48:32;102473.19;;;0.95;72.58
60099;BME280;62818;49.394;8.686;2023-02-07T02:49:34;102474.13;;;0.72;73.49
60099;BME280;62818;49.394;8.686;2023-02-07T02:50:37;102474.06;;;1.16;73.82
60099;BME280;62818;49.394;8.686;2023-02-07T02:51:38;102478.03;;;1.04;72.30
60099;BME280;62818;49.394;8.686;2023-02-07T02:52:39;102467.53;;;0.84;73.16
60099;BME280;62818;49.394;8.686;2023-02-07T02:53:39;102471.75;;;0.88;72.67
60099;BME280;62818;49.394;8.686;2023-02-07T02:54:41;102479.88;;;0.81;72.13
60099;BME280;62818;49.394;8.686;2023-02-07T02:58:42;102475.31;;;0.64;73.68
60099;BME280;62818;49.394;8.686;2023-02-07T03:00:14;102474.97;;;0.73;73.32
60099;BME280;62818;49.394;8.686;2023-02-07T03:04:50;102465.56;;;0.69;73.13
60099;BME280;62818;49.394;8.686;2023-02-07T03:08:11;102482.69;;;0.76;73.95
60099;BME280;62818;49.394;8.686;2023-02-07T03:11:09;102473.69;;;0.83;72.60
60099;BME280;62818;49.394;8.686;2023-02-07T03:12:27;102471.53;;;0.72;72.46
60099;BME280;62818;49.394;8.686;2023-02-07T03:16:14;102470.31;;;0.59;73.48
60099;BME280;62818;49.394;8.686;2023-02-07T03:19:53;102470.97;;;0.64;73.77
60099;BME280;62818;49.394;8.686;2023-02-07T03:21:11;102484.63;;;0.49;74.07
60099;BME280;62818;49.394;8.686;2023-02-07T03:22:21;102459.19;;;0.76;72.84
60099;BME280;62818;49.394;8.686;2023-02-07T03:23:25;102463.88;;;0.68;73.48
60099;BME280;62818;49.394;8.686;2023-02-07T03:24:32;102463.72;;;0.71;73.19
60099;BME280;62818;49.394;8.686;2023-02-07T03:25:35;102463.59;;;0.96;73.08
60099;BME280;62818;49.394;8.686;2023-02-07T03:26:42;102452.94;;;0.37;74.45
60099;BME280;62818;49.394;8.686;2023-02-07T03:27:45;102454.78;;;0.35;75.44
60099;BME280;62818;49.394;8.686;2023-02-07T03:28:49;102461.44;;;0.42;75.55
60099;BME280;62818;49.394;8.686;2023-02-07T03:29:54;102450.16;;;0.63;75.16
60099;BME280;62818;49.394;8.686;2023-02-07T03:31:00;102457.91;;;0.64;75.25
60099;BME280;62818;49.394;8.686;2023-02-07T03:32:06;102460.06;;;0.55;74.64
60099;BME280;62818;49.394;8.686;2023-02-07T03:33:11;102449.13;;;0.67;75.56
60099;BME280;62818;49.394;8.686;2023-02-07T03:34:16;102461.44;;;0.42;74.81
60099;BME280;62818;49.394;8.686;2023-02-07T03:35:32;102454.59;;;0.61;74.20
60099;BME280;62818;49.394;8.686;2023-02-07T03:36:45;102458.88;;;0.40;75.18
60099;BME280;62818;49.394;8.686;2023-02-07T03:37:56;102447.13;;;0.52;75.25
60099;BME280;62818;49.394;8.686;2023-02-07T03:38:59;102461.91;;;0.30;75.92
60099;BME280;62818;49.394;8.686;2023-02-07T03:40:00;102462.06;;;0.48;75.94
60099;BME280;62818;49.394;8.686;2023-02-07T03:41:06;102468.94;;;0.28;75.56
60099;BME280;62818;49.394;8.686;2023-02-07T03:42:25;102459.38;;;0.50;75.33
60099;BME280;62818;49.394;8.686;2023-02-07T03:43:35;102460.00;;;0.35;75.12
60099;BME280;62818;49.394;8.686;2023-02-07T03:44:40;102461.56;;;0.39;75.61
60099;BME280;62818;49.394;8.686;2023-02-07T03:45:43;102458.66;;;0.68;76.06
60099;BME280;62818;49.394;8.686;2023-02-07T03:46:43;102465.47;;;0.50;75.45
60099;BME280;62818;49.394;8.686;2023-02-07T03:47:44;102470.06;;;0.44;75.00
60099;BME280;62818;49.394;8.686;2023-02-07T03:48:45;102473.81;;;0.37;74.32
60099;BME280;62818;49.394;8.686;2023-02-07T03:49:46;102462.66;;;0.55;74.71
60099;BME280;62818;49.394;8.686;2023-02-07T03:50:47;102465.75;;;0.43;74.22
60099;BME280;62818;49.394;8.686;2023-02-07T03:51:49;102472.44;;;0.27;74.96
60099;BME280;62818;49.394;8.686;2023-02-07T03:52:51;102459.38;;;0.50;74.10
60099;BME280;62818;49.394;8.686;2023-02-07T03:53:51;102474.44;;;0.43;73.65
60099;BME280;62818;49.394;8.686;2023-02-07T03:54:52;102472.66;;;0.87;74.33
60099;BME280;62818;49.394;8.686;2023-02-07T03:55:52;102465.81;;;0.63;73.44
60099;BME280;62818;49.394;8.686;2023-02-07T03:56:53;102472.06;;;0.37;74.26
60099;BME280;62818;49.394;8.686;2023-02-07T03:57:53;102467.28;;;0.70;74.24
60099;BME280;62818;49.394;8.686;2023-02-07T03:58:54;102463.38;;;0.80;73.46
60099;BME280;62818;49.394;8.686;2023-02-07T03:59:54;102470.06;;;0.44;73.67
60099;BME280;62818;49.394;8.686;2023-02-07T04:00:55;102464.28;;;0.36;73.44
60099;BME280;62818;49.394;8.686;2023-02-07T04:01:56;102467.56;;;0.41;73.42
60099;BME280;62818;49.394;8.686;2023-02-07T04:02:56;102471.06;;;0.40;73.45
60099;BME280;62818;49.394;8.686;2023-02-07T04:03:57;102470.00;;;0.45;73.38
60099;BME280;62818;49.394;8.686;2023-02-07T04:04:57;102460.16;;;0.52;72.96
60099;BME280;62818;49.394;8.686;2023-02-07T04:05:58;102459.03;;;0.37;74.37
60099;BME280;62818;49.394;8.686;2023-02-07T04:06:58;102465.91;;;0.38;74.21
60099;BME280;62818;49.394;8.686;2023-02-07T04:07:59;102466.09;;;0.34;74.44
60099;BME280;62818;49.394;8.686;2023-02-07T04:09:00;102466.44;;;0.25;73.90
60099;BME280;62818;49.394;8.686;2023-02-07T04:10:01;102459.47;;;0.25;74.29
60099;BME280;62818;49.394;8.686;2023-02-07T04:11:03;102457.19;;;0.18;75.08
60099;BME280;62818;49.394;8.686;2023-02-07T04:12:03;102466.88;;;0.14;75.31
60099;BME280;62818;49.394;8.686;2023-02-07T04:13:05;102459.03;;;0.37;75.05
60099;BME280;62818;49.394;8.686;2023-02-07T04:14:05;102460.88;;;0.34;74.11
60099;BME280;62818;49.394;8.686;2023-02-07T04:15:07;102446.94;;;0.35;73.52
60099;BME280;62818;49.394;8.686;2023-02-07T04:16:08;102442.00;;;0.49;73.92
60099;BME280;62818;49.394;8.686;2023-02-07T04:17:09;102459.41;;;0.27;73.81
60099;BME280;62818;49.394;8.686;2023-02-07T04:18:09;102445.91;;;0.39;73.41
60099;BME280;62818;49.394;8.686;2023-02-07T04:19:10;102443.81;;;0.68;72.96
60099;BME280;62818;49.394;8.686;2023-02-07T04:20:11;102432.25;;;0.54;72.80
60099;BME280;62818;49.394;8.686;2023-02-07T04:21:11;102435.53;;;0.59;72.87
60099;BME280;62818;49.394;8.686;2023-02-07T04:22:12;102438.41;;;0.73;72.53
60099;BME280;62818;49.394;8.686;2023-02-07T04:23:13;102441.22;;;0.25;73.13
60099;BME280;62818;49.394;8.686;2023-02-07T04:24:13;102432.78;;;0.19;75.11
60099;BME280;62818;49.394;8.686;2023-02-07T04:25:14;102443.22;;;0.19;75.02
60099;BME280;62818;49.394;8.686;2023-02-07T04:26:14;102433.03;;;0.13;74.70
60099;BME280;62818;49.394;8.686;2023-02-07T04:27:15;102449.97;;;0.24;75.46
60099;BME280;62818;49.394;8.686;2023-02-07T04:28:15;102451.03;;;0.42;74.54
60099;BME280;62818;49.394;8.686;2023-02-07T04:29:16;102449.13;;;0.45;74.68
60099;BME280;62818;49.394;8.686;2023-02-07T04:30:17;102457.97;;;0.20;74.52
60099;BME280;62818;49.394;8.686;2023-02-07T04:31:17;102445.75;;;0.20;74.72
60099;BME280;62818;49.394;8.686;2023-02-07T04:32:18;102464.28;;;-0.09;76.33
60099;BME280;62818;49.394;8.686;2023-02-07T04:33:19;102456.69;;;0.08;76.06
60099;BME280;62818;49.394;8.686;2023-02-07T04:34:22;102462.41;;;0.18;75.79
60099;BME280;62818;49.394;8.686;2023-02-07T04:35:23;102473.19;;;0.09;75.39
60099;BME280;62818;49.394;8.686;2023-02-07T04:36:24;102471.34;;;0.11;75.82
60099;BME280;62818;49.394;8.686;2023-02-07T04:37:24;102468.28;;;0.23;75.35
60099;BME280;62818;49.394;8.686;2023-02-07T04:38:25;102470.75;;;0.04;75.66
60099;BME280;62818;49.394;8.686;2023-02-07T04:39:27;102464.09;;;0.19;75.42
60099;BME280;62818;49.394;8.686;2023-02-07T04:40:27;102466.81;;;-0.08;75.61
60099;BME280;62818;49.394;8.686;2023-02-07T04:41:27;102464.19;;;0.16;75.78
60099;BME280;62818;49.394;8.686;2023-02-07T04:42:28;102464.19;;;0.16;75.61
60099;BME280;62818;49.394;8.686;2023-02-07T04:43:30;102467.81;;;0.12;76.19
60099;BME280;62818;49.394;8.686;2023-02-07T04:44:31;102472.16;;;0.13;75.59
60099;BME280;62818;49.394;8.686;2023-02-07T04:45:32;102459.19;;;0.33;74.55
60099;BME280;62818;49.394;8.686;2023-02-07T04:46:33;102473.31;;;0.27;74.71
60099;BME280;62818;49.394;8.686;2023-02-07T04:47:33;102463.28;;;0.17;74.92
60099;BME280;62818;49.394;8.686;2023-02-07T04:48:35;102481.53;;;0.17;75.53
60099;BME280;62818;49.394;8.686;2023-02-07T04:49:36;102473.03;;;0.12;75.38
60099;BME280;62818;49.394;8.686;2023-02-07T04:50:37;102472.84;;;0.18;75.55
60099;BME280;62818;49.394;8.686;2023-02-07T04:51:37;102476.69;;;0.08;75.26
60099;BME280;62818;49.394;8.686;2023-02-07T04:52:38;102474.91;;;-0.15;76.46
60099;BME280;62818;49.394;8.686;2023-02-07T04:53:40;102463.88;;;-0.22;77.36
60099;BME280;62818;49.394;8.686;2023-02-07T04:54:41;102468.50;;;-0.07;76.98
60099;BME280;62818;49.394;8.686;2023-02-07T04:55:41;102467.88;;;-0.13;77.04
60099;BME280;62818;49.394;8.686;2023-02-07T04:56:42;102468.31;;;-0.01;76.07
60099;BME280;62818;49.394;8.686;2023-02-07T04:57:42;102472.38;;;-0.17;76.26
60099;BME280;62818;49.394;8.686;2023-02-07T04:58:43;102469.19;;;-0.25;76.38
60099;BME280;62818;49.394;8.686;2023-02-07T04:59:43;102476.91;;;0.02;76.68
60099;BME280;62818;49.394;8.686;2023-02-07T05:00:44;102469.78;;;0.07;77.47
60099;BME280;62818;49.394;8.686;2023-02-07T05:01:45;102475.53;;;-0.09;76.58
60099;BME280;62818;49.394;8.686;2023-02-07T05:02:46;102473.63;;;0.20;76.29
60099;BME280;62818;49.394;8.686;2023-02-07T05:03:46;102473.50;;;-0.01;76.10
60099;BME280;62818;49.394;8.686;2023-02-07T05:04:47;102485.91;;;-0.30;77.51
60099;BME280;62818;49.394;8.686;2023-02-07T05:05:47;102471.47;;;0.08;77.30
60099;BME280;62818;49.394;8.686;2023-02-07T05:06:48;102476.56;;;0.11;76.54
60099;BME280;62818;49.394;8.686;2023-02-07T05:07:48;102468.78;;;0.32;76.13
60099;BME280;62818;49.394;8.686;2023-02-07T05:08:49;102474.16;;;0.05;75.90
60099;BME280;62818;49.394;8.686;2023-02-07T05:09:49;102479.38;;;0.28;76.46
60099;BME280;62818;49.394;8.686;2023-02-07T05:10:51;102485.63;;;0.00;76.05
60099;BME280;62818;49.394;8.686;2023-02-07T05:11:53;102484.50;;;0.31;75.29
60099;BME280;62818;49.394;8.686;2023-02-07T05:12:54;102481.66;;;-0.10;75.65
60099;BME280;62818;49.394;8.686;2023-02-07T05:13:54;102484.50;;;-0.16;77.14
60099;BME280;62818;49.394;8.686;2023-02-07T05:14:55;102493.13;;;-0.14;76.08
60099;BME280;62818;49.394;8.686;2023-02-07T05:15:55;102491.47;;;-0.16;76.44
60099;BME280;62818;49.394;8.686;2023-02-07T05:16:56;102493.91;;;0.12;76.72
60099;BME280;62818;49.394;8.686;2023-02-07T05:17:56;102486.59;;;-0.25;77.21
60099;BME280;62818;49.394;8.686;2023-02-07T05:18:57;102492.59;;;-0.23;77.51
60099;BME280;62818;49.394;8.686;2023-02-07T05:19:57;102501.50;;;-0.06;76.33
60099;BME280;62818;49.394;8.686;2023-02-07T05:20:58;102490.16;;;0.19;76.11
60099;BME280;62818;49.394;8.686;2023-02-07T05:21:58;102498.91;;;0.18;76.82
60099;BME280;62818;49.394;8.686;2023-02-07T05:22:59;102506.00;;;-0.34;76.21
60099;BME280;62818;49.394;8.686;2023-02-07T05:24:00;102502.28;;;-0.27;77.29
60099;BME280;62818;49.394;8.686;2023-02-07T05:25:00;102507.38;;;-0.24;77.80
60099;BME280;62818;49.394;8.686;2023-02-07T05:26:00;102503.22;;;-0.05;76.83
60099;BME280;62818;49.394;8.686;2023-02-07T05:27:01;102505.06;;;-0.31;77.25
60099;BME280;62818;49.394;8.686;2023-02-07T05:28:01;102504.19;;;-0.32;77.89
60099;BME280;62818;49.394;8.686;2023-02-07T05:29:02;102512.34;;;-0.41;78.49
60099;BME280;62818;49.394;8.686;2023-02-07T05:30:03;102509.31;;;-0.06;78.43
60099;BME280;62818;49.394;8.686;2023-02-07T05:31:05;102515.97;;;-0.22;77.62
60099;BME280;62818;49.394;8.686;2023-02-07T05:32:05;102517.31;;;-0.35;78.13
60099;BME280;62818;49.394;8.686;2023-02-07T05:33:24;102505.09;;;-0.33;77.91
60099;BME280;62818;49.394;8.686;2023-02-07T05:34:25;102509.09;;;-0.23;77.20
60099;BME280;62818;49.394;8.686;2023-02-07T05:35:25;102513.63;;;-0.05;76.59
60099;BME280;62818;49.394;8.686;2023-02-07T05:36:26;102513.19;;;-0.16;77.06
60099;BME280;62818;49.394;8.686;2023-02-07T05:37:26;102505.88;;;-0.31;76.29
60099;BME280;62818;49.394;8.686;2023-02-07T05:38:27;102515.44;;;0.17;76.55
60099;BME280;62818;49.394;8.686;2023-02-07T05:39:28;102509.75;;;0.52;75.75
60099;BME280;62818;49.394;8.686;2023-02-07T05:40:28;102507.47;;;0.43;75.34
60099;BME280;62818;49.394;8.686;2023-02-07T05:41:28;102507.16;;;0.06;75.44
60099;BME280;62818;49.394;8.686;2023-02-07T05:42:29;102513.53;;;-0.26;76.64
60099;BME280;62818;49.394;8.686;2023-02-07T05:43:30;102507.63;;;0.17;77.42
60099;BME280;62818;49.394;8.686;2023-02-07T05:44:30;102507.28;;;0.26;76.53
60099;BME280;62818;49.394;8.686;2023-02-07T05:45:31;102505.34;;;0.31;76.33
60099;BME280;62818;49.394;8.686;2023-02-07T05:46:32;102507.59;;;-0.30;76.15
60099;BME280;62818;49.394;8.686;2023-02-07T05:47:33;102516.09;;;-0.49;77.81
60099;BME280;62818;49.394;8.686;2023-02-07T05:48:34;102517.38;;;-0.61;79.10
60099;BME280;62818;49.394;8.686;2023-02-07T05:49:34;102512.81;;;-0.07;78.79
60099;BME280;62818;49.394;8.686;2023-02-07T05:50:36;102523.44;;;-0.11;76.34
60099;BME280;62818;49.394;8.686;2023-02-07T05:51:37;102516.56;;;0.10;76.91
60099;BME280;62818;49.394;8.686;2023-02-07T05:52:38;102519.75;;;-0.06;76.28
60099;BME280;62818;49.394;8.686;2023-02-07T05:53:38;102506.94;;;-0.12;76.13
60099;BME280;62818;49.394;8.686;2023-02-07T05:54:39;102522.78;;;-0.18;75.49
60099;BME280;62818;49.394;8.686;2023-02-07T05:55:39;102520.13;;;0.07;74.98
60099;BME280;62818;49.394;8.686;2023-02-07T05:56:40;102519.59;;;-0.26;75.14
60099;BME280;62818;49.394;8.686;2023-02-07T05:57:42;102518.31;;;-0.14;75.71
60099;BME280;62818;49.394;8.686;2023-02-07T05:58:43;102523.69;;;0.05;76.35
60099;BME280;62818;49.394;8.686;2023-02-07T05:59:43;102525.78;;;0.20;76.86
60099;BME280;62818;49.394;8.686;2023-02-07T06:00:44;102519.19;;;0.10;75.84
60099;BME280;62818;49.394;8.686;2023-02-07T06:01:44;102512.47;;;0.03;76.37
60099;BME280;62818;49.394;8.686;2023-02-07T06:02:45;102520.63;;;-0.07;75.70
60099;BME280;62818;49.394;8.686;2023-02-07T06:03:45;102519.81;;;-0.07;75.54
60099;BME280;62818;49.394;8.686;2023-02-07T06:04:46;102514.16;;;-0.20;76.08
60099;BME280;62818;49.394;8.686;2023-02-07T06:05:46;102520.06;;;-0.38;76.89
60099;BME280;62818;49.394;8.686;2023-02-07T06:06:47;102520.16;;;-0.41;77.52
60099;BME280;62818;49.394;8.686;2023-02-07T06:07:49;102526.38;;;-0.45;78.07
60099;BME280;62818;49.394;8.686;2023-02-07T06:08:50;102528.91;;;0.05;77.77